You are listening to:
LHFH CTAF - Farkashegy, Hungary

LHBP 272000Z 09007KT CAVOK 19/11 Q1017 NOSIG

If stream doesn't start automatically press the play button
If stream stops then reload player then press play